sensor_id;sensor_type;location;lat;lon;timestamp;P1;durP1;ratioP1;P2;durP2;ratioP2
39676;SDS011;27789;50.840;4.386;2022-10-30T00:00:18;13.40;;;4.32;;
39676;SDS011;27789;50.840;4.386;2022-10-30T00:02:45;17.83;;;5.80;;
39676;SDS011;27789;50.840;4.386;2022-10-30T00:05:11;18.00;;;5.18;;
39676;SDS011;27789;50.840;4.386;2022-10-30T00:07:37;17.13;;;5.88;;
39676;SDS011;27789;50.840;4.386;2022-10-30T00:10:02;10.50;;;4.90;;
39676;SDS011;27789;50.840;4.386;2022-10-30T00:12:28;14.68;;;5.22;;
39676;SDS011;27789;50.840;4.386;2022-10-30T00:14:54;19.40;;;6.07;;
39676;SDS011;27789;50.840;4.386;2022-10-30T00:17:19;15.40;;;5.28;;
39676;SDS011;27789;50.840;4.386;2022-10-30T00:19:45;13.82;;;5.38;;
39676;SDS011;27789;50.840;4.386;2022-10-30T00:22:10;18.83;;;5.03;;
39676;SDS011;27789;50.840;4.386;2022-10-30T00:24:36;13.52;;;5.45;;
39676;SDS011;27789;50.840;4.386;2022-10-30T00:27:02;20.63;;;6.28;;
39676;SDS011;27789;50.840;4.386;2022-10-30T00:29:27;18.60;;;5.40;;
39676;SDS011;27789;50.840;4.386;2022-10-30T00:31:53;20.27;;;5.80;;
39676;SDS011;27789;50.840;4.386;2022-10-30T00:34:18;15.48;;;5.45;;
39676;SDS011;27789;50.840;4.386;2022-10-30T00:36:44;14.52;;;5.22;;
39676;SDS011;27789;50.840;4.386;2022-10-30T00:39:10;15.60;;;5.32;;
39676;SDS011;27789;50.840;4.386;2022-10-30T00:41:36;16.15;;;5.72;;
39676;SDS011;27789;50.840;4.386;2022-10-30T00:47:00;19.50;;;6.25;;
39676;SDS011;27789;50.840;4.386;2022-10-30T00:49:30;16.20;;;6.03;;
39676;SDS011;27789;50.840;4.386;2022-10-30T00:51:59;18.08;;;5.97;;
39676;SDS011;27789;50.840;4.386;2022-10-30T00:54:27;13.75;;;5.97;;
39676;SDS011;27789;50.840;4.386;2022-10-30T00:56:53;16.75;;;6.47;;
39676;SDS011;27789;50.840;4.386;2022-10-30T00:59:22;10.30;;;5.60;;
39676;SDS011;27789;50.840;4.386;2022-10-30T01:01:50;15.80;;;5.25;;
39676;SDS011;27789;50.840;4.386;2022-10-30T01:04:17;12.70;;;5.97;;
39676;SDS011;27789;50.840;4.386;2022-10-30T01:06:44;16.83;;;6.30;;
39676;SDS011;27789;50.840;4.386;2022-10-30T01:09:12;15.77;;;6.07;;
39676;SDS011;27789;50.840;4.386;2022-10-30T01:11:39;20.67;;;5.85;;
39676;SDS011;27789;50.840;4.386;2022-10-30T01:14:05;11.35;;;5.70;;
39676;SDS011;27789;50.840;4.386;2022-10-30T01:35:23;17.40;;;6.03;;
39676;SDS011;27789;50.840;4.386;2022-10-30T01:37:57;20.27;;;5.40;;
39676;SDS011;27789;50.840;4.386;2022-10-30T01:40:37;13.80;;;6.00;;
39676;SDS011;27789;50.840;4.386;2022-10-30T01:43:02;20.85;;;6.22;;
39676;SDS011;27789;50.840;4.386;2022-10-30T01:50:59;18.40;;;5.97;;
39676;SDS011;27789;50.840;4.386;2022-10-30T02:01:39;19.13;;;6.47;;
39676;SDS011;27789;50.840;4.386;2022-10-30T02:04:06;24.15;;;7.25;;
39676;SDS011;27789;50.840;4.386;2022-10-30T02:06:34;11.75;;;5.93;;
39676;SDS011;27789;50.840;4.386;2022-10-30T02:09:00;15.40;;;5.72;;
39676;SDS011;27789;50.840;4.386;2022-10-30T02:11:26;14.18;;;5.53;;
39676;SDS011;27789;50.840;4.386;2022-10-30T02:13:53;27.88;;;6.82;;
39676;SDS011;27789;50.840;4.386;2022-10-30T02:16:21;26.52;;;6.97;;
39676;SDS011;27789;50.840;4.386;2022-10-30T02:18:47;16.15;;;6.05;;
39676;SDS011;27789;50.840;4.386;2022-10-30T02:21:13;19.65;;;6.30;;
39676;SDS011;27789;50.840;4.386;2022-10-30T02:23:39;12.00;;;6.05;;
39676;SDS011;27789;50.840;4.386;2022-10-30T02:26:04;20.05;;;6.10;;
39676;SDS011;27789;50.840;4.386;2022-10-30T02:28:30;21.25;;;6.35;;
39676;SDS011;27789;50.840;4.386;2022-10-30T02:30:56;17.88;;;6.07;;
39676;SDS011;27789;50.840;4.386;2022-10-30T02:33:22;16.20;;;5.53;;
39676;SDS011;27789;50.840;4.386;2022-10-30T02:35:48;18.05;;;5.78;;
39676;SDS011;27789;50.840;4.386;2022-10-30T02:38:14;22.15;;;5.50;;
39676;SDS011;27789;50.840;4.386;2022-10-30T02:40:40;21.63;;;6.43;;
39676;SDS011;27789;50.840;4.386;2022-10-30T02:43:05;16.02;;;6.03;;
39676;SDS011;27789;50.840;4.386;2022-10-30T02:45:31;16.05;;;5.95;;
39676;SDS011;27789;50.840;4.386;2022-10-30T02:47:58;12.07;;;6.15;;
39676;SDS011;27789;50.840;4.386;2022-10-30T02:50:24;16.08;;;7.10;;
39676;SDS011;27789;50.840;4.386;2022-10-30T02:52:49;14.77;;;6.05;;
39676;SDS011;27789;50.840;4.386;2022-10-30T02:55:15;19.17;;;6.72;;
39676;SDS011;27789;50.840;4.386;2022-10-30T02:57:41;16.83;;;5.70;;
39676;SDS011;27789;50.840;4.386;2022-10-30T03:00:06;18.75;;;5.45;;
39676;SDS011;27789;50.840;4.386;2022-10-30T03:02:32;15.60;;;5.90;;
39676;SDS011;27789;50.840;4.386;2022-10-30T03:04:58;21.58;;;6.13;;
39676;SDS011;27789;50.840;4.386;2022-10-30T03:07:23;17.23;;;7.03;;
39676;SDS011;27789;50.840;4.386;2022-10-30T03:09:49;17.63;;;6.57;;
39676;SDS011;27789;50.840;4.386;2022-10-30T03:12:16;17.33;;;6.63;;
39676;SDS011;27789;50.840;4.386;2022-10-30T03:14:41;15.43;;;5.78;;
39676;SDS011;27789;50.840;4.386;2022-10-30T03:17:07;16.27;;;5.95;;
39676;SDS011;27789;50.840;4.386;2022-10-30T03:19:33;16.13;;;7.03;;
39676;SDS011;27789;50.840;4.386;2022-10-30T03:21:59;18.77;;;7.38;;
39676;SDS011;27789;50.840;4.386;2022-10-30T03:24:25;17.40;;;6.57;;
39676;SDS011;27789;50.840;4.386;2022-10-30T03:26:50;16.42;;;6.88;;
39676;SDS011;27789;50.840;4.386;2022-10-30T03:29:16;14.57;;;5.65;;
39676;SDS011;27789;50.840;4.386;2022-10-30T03:31:42;17.20;;;6.38;;
39676;SDS011;27789;50.840;4.386;2022-10-30T03:34:08;19.20;;;5.95;;
39676;SDS011;27789;50.840;4.386;2022-10-30T03:36:33;19.70;;;7.90;;
39676;SDS011;27789;50.840;4.386;2022-10-30T03:38:59;12.30;;;6.13;;
39676;SDS011;27789;50.840;4.386;2022-10-30T03:41:24;19.20;;;6.00;;
39676;SDS011;27789;50.840;4.386;2022-10-30T03:43:50;19.27;;;6.90;;
39676;SDS011;27789;50.840;4.386;2022-10-30T03:46:16;19.60;;;5.93;;
39676;SDS011;27789;50.840;4.386;2022-10-30T03:48:41;17.48;;;7.68;;
39676;SDS011;27789;50.840;4.386;2022-10-30T03:51:07;15.00;;;6.93;;
39676;SDS011;27789;50.840;4.386;2022-10-30T03:53:33;15.82;;;7.07;;
39676;SDS011;27789;50.840;4.386;2022-10-30T03:55:59;18.25;;;6.18;;
39676;SDS011;27789;50.840;4.386;2022-10-30T03:58:28;16.02;;;7.05;;
39676;SDS011;27789;50.840;4.386;2022-10-30T04:00:54;18.15;;;7.35;;
39676;SDS011;27789;50.840;4.386;2022-10-30T04:03:25;20.98;;;6.70;;
39676;SDS011;27789;50.840;4.386;2022-10-30T04:05:51;22.27;;;6.40;;
39676;SDS011;27789;50.840;4.386;2022-10-30T04:08:17;21.52;;;6.72;;
39676;SDS011;27789;50.840;4.386;2022-10-30T04:10:43;12.85;;;6.90;;
39676;SDS011;27789;50.840;4.386;2022-10-30T04:13:10;13.98;;;6.85;;
39676;SDS011;27789;50.840;4.386;2022-10-30T04:15:36;14.50;;;6.93;;
39676;SDS011;27789;50.840;4.386;2022-10-30T04:18:02;19.45;;;6.53;;
39676;SDS011;27789;50.840;4.386;2022-10-30T04:20:28;13.73;;;6.43;;
39676;SDS011;27789;50.840;4.386;2022-10-30T04:22:54;13.10;;;7.03;;
39676;SDS011;27789;50.840;4.386;2022-10-30T04:25:24;18.38;;;7.80;;
39676;SDS011;27789;50.840;4.386;2022-10-30T04:27:51;16.55;;;5.93;;
39676;SDS011;27789;50.840;4.386;2022-10-30T04:30:17;21.15;;;6.68;;
39676;SDS011;27789;50.840;4.386;2022-10-30T04:32:51;13.98;;;6.47;;
39676;SDS011;27789;50.840;4.386;2022-10-30T04:35:18;19.45;;;7.10;;
39676;SDS011;27789;50.840;4.386;2022-10-30T04:40:23;18.85;;;6.25;;
39676;SDS011;27789;50.840;4.386;2022-10-30T04:42:50;18.60;;;6.82;;
39676;SDS011;27789;50.840;4.386;2022-10-30T04:45:16;19.75;;;7.55;;
39676;SDS011;27789;50.840;4.386;2022-10-30T04:47:42;21.38;;;7.00;;
39676;SDS011;27789;50.840;4.386;2022-10-30T04:50:08;13.00;;;6.97;;
39676;SDS011;27789;50.840;4.386;2022-10-30T04:52:34;15.65;;;6.40;;
39676;SDS011;27789;50.840;4.386;2022-10-30T04:55:00;15.73;;;8.02;;
39676;SDS011;27789;50.840;4.386;2022-10-30T04:57:26;15.70;;;7.20;;
39676;SDS011;27789;50.840;4.386;2022-10-30T04:59:52;16.23;;;7.25;;
39676;SDS011;27789;50.840;4.386;2022-10-30T05:02:17;16.20;;;7.32;;
39676;SDS011;27789;50.840;4.386;2022-10-30T05:04:45;16.80;;;7.57;;
39676;SDS011;27789;50.840;4.386;2022-10-30T05:07:11;13.05;;;6.82;;
39676;SDS011;27789;50.840;4.386;2022-10-30T05:09:37;18.70;;;6.93;;
39676;SDS011;27789;50.840;4.386;2022-10-30T05:12:03;16.92;;;6.55;;
39676;SDS011;27789;50.840;4.386;2022-10-30T05:14:29;13.88;;;5.85;;
39676;SDS011;27789;50.840;4.386;2022-10-30T05:16:56;16.77;;;6.75;;
39676;SDS011;27789;50.840;4.386;2022-10-30T05:19:22;17.88;;;7.30;;
39676;SDS011;27789;50.840;4.386;2022-10-30T05:21:47;10.20;;;6.07;;
39676;SDS011;27789;50.840;4.386;2022-10-30T05:24:13;13.88;;;6.85;;
39676;SDS011;27789;50.840;4.386;2022-10-30T05:26:38;22.00;;;7.95;;
39676;SDS011;27789;50.840;4.386;2022-10-30T05:29:04;17.30;;;9.00;;
39676;SDS011;27789;50.840;4.386;2022-10-30T05:31:29;17.95;;;6.93;;
39676;SDS011;27789;50.840;4.386;2022-10-30T05:33:55;25.65;;;7.78;;
39676;SDS011;27789;50.840;4.386;2022-10-30T05:36:21;21.73;;;7.65;;
39676;SDS011;27789;50.840;4.386;2022-10-30T05:38:46;19.42;;;7.70;;
39676;SDS011;27789;50.840;4.386;2022-10-30T05:41:12;17.17;;;7.15;;
39676;SDS011;27789;50.840;4.386;2022-10-30T05:43:37;13.77;;;7.15;;
39676;SDS011;27789;50.840;4.386;2022-10-30T05:46:03;16.02;;;7.90;;
39676;SDS011;27789;50.840;4.386;2022-10-30T05:48:29;12.57;;;7.00;;
39676;SDS011;27789;50.840;4.386;2022-10-30T05:50:55;19.35;;;7.65;;
39676;SDS011;27789;50.840;4.386;2022-10-30T05:53:21;12.48;;;6.75;;
39676;SDS011;27789;50.840;4.386;2022-10-30T05:55:47;17.92;;;7.82;;
39676;SDS011;27789;50.840;4.386;2022-10-30T05:58:13;20.88;;;7.72;;
39676;SDS011;27789;50.840;4.386;2022-10-30T06:00:38;19.67;;;7.75;;
39676;SDS011;27789;50.840;4.386;2022-10-30T06:03:06;19.38;;;7.68;;
39676;SDS011;27789;50.840;4.386;2022-10-30T06:05:34;18.23;;;8.38;;
39676;SDS011;27789;50.840;4.386;2022-10-30T06:08:01;16.40;;;7.80;;
39676;SDS011;27789;50.840;4.386;2022-10-30T06:10:27;13.32;;;7.78;;
39676;SDS011;27789;50.840;4.386;2022-10-30T06:13:00;18.83;;;8.25;;
39676;SDS011;27789;50.840;4.386;2022-10-30T06:15:27;21.63;;;9.93;;
39676;SDS011;27789;50.840;4.386;2022-10-30T06:17:53;21.02;;;8.73;;
39676;SDS011;27789;50.840;4.386;2022-10-30T06:20:20;20.77;;;8.88;;
39676;SDS011;27789;50.840;4.386;2022-10-30T06:22:55;21.90;;;9.30;;
39676;SDS011;27789;50.840;4.386;2022-10-30T06:25:22;30.55;;;9.25;;
39676;SDS011;27789;50.840;4.386;2022-10-30T06:27:48;19.13;;;8.90;;
39676;SDS011;27789;50.840;4.386;2022-10-30T06:30:14;18.45;;;9.73;;
39676;SDS011;27789;50.840;4.386;2022-10-30T06:32:39;17.88;;;9.88;;
39676;SDS011;27789;50.840;4.386;2022-10-30T06:35:05;20.63;;;9.77;;
39676;SDS011;27789;50.840;4.386;2022-10-30T06:37:32;30.05;;;9.05;;
39676;SDS011;27789;50.840;4.386;2022-10-30T06:39:57;27.08;;;9.77;;
39676;SDS011;27789;50.840;4.386;2022-10-30T06:42:23;20.13;;;9.70;;
39676;SDS011;27789;50.840;4.386;2022-10-30T06:44:48;27.58;;;9.82;;
39676;SDS011;27789;50.840;4.386;2022-10-30T06:47:14;24.52;;;9.43;;
39676;SDS011;27789;50.840;4.386;2022-10-30T06:49:40;26.30;;;9.43;;
39676;SDS011;27789;50.840;4.386;2022-10-30T06:52:06;18.30;;;9.88;;
39676;SDS011;27789;50.840;4.386;2022-10-30T06:54:31;26.73;;;9.52;;
39676;SDS011;27789;50.840;4.386;2022-10-30T06:56:58;26.48;;;10.65;;
39676;SDS011;27789;50.840;4.386;2022-10-30T06:59:24;21.77;;;9.50;;
39676;SDS011;27789;50.840;4.386;2022-10-30T07:01:50;20.50;;;10.00;;
39676;SDS011;27789;50.840;4.386;2022-10-30T07:04:15;18.27;;;9.73;;
39676;SDS011;27789;50.840;4.386;2022-10-30T07:06:41;21.65;;;9.30;;
39676;SDS011;27789;50.840;4.386;2022-10-30T07:09:07;32.65;;;10.55;;
39676;SDS011;27789;50.840;4.386;2022-10-30T07:11:32;27.70;;;9.93;;
39676;SDS011;27789;50.840;4.386;2022-10-30T07:13:58;24.48;;;9.95;;
39676;SDS011;27789;50.840;4.386;2022-10-30T07:16:23;23.33;;;9.95;;
39676;SDS011;27789;50.840;4.386;2022-10-30T07:18:50;24.98;;;9.45;;
39676;SDS011;27789;50.840;4.386;2022-10-30T07:21:15;19.73;;;9.05;;
39676;SDS011;27789;50.840;4.386;2022-10-30T07:23:41;33.35;;;10.52;;
39676;SDS011;27789;50.840;4.386;2022-10-30T07:26:07;14.70;;;9.02;;
39676;SDS011;27789;50.840;4.386;2022-10-30T07:28:32;17.58;;;9.60;;
39676;SDS011;27789;50.840;4.386;2022-10-30T07:30:58;23.13;;;9.10;;
39676;SDS011;27789;50.840;4.386;2022-10-30T07:33:24;18.33;;;9.52;;
39676;SDS011;27789;50.840;4.386;2022-10-30T07:35:50;17.95;;;9.73;;
39676;SDS011;27789;50.840;4.386;2022-10-30T07:38:15;22.23;;;8.38;;
39676;SDS011;27789;50.840;4.386;2022-10-30T07:40:41;24.20;;;8.75;;
39676;SDS011;27789;50.840;4.386;2022-10-30T07:43:08;20.33;;;9.05;;
39676;SDS011;27789;50.840;4.386;2022-10-30T07:45:37;24.73;;;9.57;;
39676;SDS011;27789;50.840;4.386;2022-10-30T07:48:03;19.33;;;8.85;;
39676;SDS011;27789;50.840;4.386;2022-10-30T07:50:30;21.15;;;9.30;;
39676;SDS011;27789;50.840;4.386;2022-10-30T07:52:56;22.30;;;10.10;;
39676;SDS011;27789;50.840;4.386;2022-10-30T07:55:21;25.73;;;9.93;;
39676;SDS011;27789;50.840;4.386;2022-10-30T07:57:47;22.30;;;8.95;;
39676;SDS011;27789;50.840;4.386;2022-10-30T08:00:16;20.00;;;8.85;;
39676;SDS011;27789;50.840;4.386;2022-10-30T08:02:42;24.75;;;8.02;;
39676;SDS011;27789;50.840;4.386;2022-10-30T08:05:08;21.50;;;9.15;;
39676;SDS011;27789;50.840;4.386;2022-10-30T08:07:35;21.73;;;9.13;;
39676;SDS011;27789;50.840;4.386;2022-10-30T08:10:03;25.38;;;9.07;;
39676;SDS011;27789;50.840;4.386;2022-10-30T08:12:31;15.20;;;7.88;;
39676;SDS011;27789;50.840;4.386;2022-10-30T08:14:58;26.08;;;9.05;;
39676;SDS011;27789;50.840;4.386;2022-10-30T08:17:23;17.90;;;7.60;;
39676;SDS011;27789;50.840;4.386;2022-10-30T08:19:49;20.00;;;9.18;;
39676;SDS011;27789;50.840;4.386;2022-10-30T08:22:15;21.17;;;7.93;;
39676;SDS011;27789;50.840;4.386;2022-10-30T08:24:40;22.95;;;7.80;;
39676;SDS011;27789;50.840;4.386;2022-10-30T08:27:06;22.33;;;9.40;;
39676;SDS011;27789;50.840;4.386;2022-10-30T08:29:32;18.27;;;7.65;;
39676;SDS011;27789;50.840;4.386;2022-10-30T08:32:00;19.33;;;7.20;;
39676;SDS011;27789;50.840;4.386;2022-10-30T08:34:26;19.40;;;7.30;;
39676;SDS011;27789;50.840;4.386;2022-10-30T08:36:52;18.40;;;7.60;;
39676;SDS011;27789;50.840;4.386;2022-10-30T08:39:18;18.60;;;7.90;;
39676;SDS011;27789;50.840;4.386;2022-10-30T08:41:44;20.50;;;7.38;;
39676;SDS011;27789;50.840;4.386;2022-10-30T08:44:10;12.02;;;6.50;;
39676;SDS011;27789;50.840;4.386;2022-10-30T08:46:36;20.10;;;7.72;;
39676;SDS011;27789;50.840;4.386;2022-10-30T08:49:02;19.77;;;6.82;;
39676;SDS011;27789;50.840;4.386;2022-10-30T08:51:30;14.48;;;8.38;;
39676;SDS011;27789;50.840;4.386;2022-10-30T08:53:57;18.65;;;7.85;;
39676;SDS011;27789;50.840;4.386;2022-10-30T08:56:23;17.67;;;7.55;;
39676;SDS011;27789;50.840;4.386;2022-10-30T08:58:49;19.20;;;7.30;;
39676;SDS011;27789;50.840;4.386;2022-10-30T09:01:15;17.48;;;6.88;;
39676;SDS011;27789;50.840;4.386;2022-10-30T09:03:41;18.48;;;8.70;;
39676;SDS011;27789;50.840;4.386;2022-10-30T09:06:08;19.73;;;7.40;;
39676;SDS011;27789;50.840;4.386;2022-10-30T09:08:34;19.38;;;8.25;;
39676;SDS011;27789;50.840;4.386;2022-10-30T09:11:00;18.15;;;7.75;;
39676;SDS011;27789;50.840;4.386;2022-10-30T09:13:25;18.63;;;7.63;;
39676;SDS011;27789;50.840;4.386;2022-10-30T09:15:51;15.15;;;6.28;;
39676;SDS011;27789;50.840;4.386;2022-10-30T09:18:17;17.48;;;7.47;;
39676;SDS011;27789;50.840;4.386;2022-10-30T09:20:42;19.38;;;7.43;;
39676;SDS011;27789;50.840;4.386;2022-10-30T09:23:08;17.70;;;7.07;;
39676;SDS011;27789;50.840;4.386;2022-10-30T09:25:34;17.45;;;7.25;;
39676;SDS011;27789;50.840;4.386;2022-10-30T09:27:59;19.90;;;7.45;;
39676;SDS011;27789;50.840;4.386;2022-10-30T09:30:25;14.13;;;7.43;;
39676;SDS011;27789;50.840;4.386;2022-10-30T09:32:58;18.20;;;7.38;;
39676;SDS011;27789;50.840;4.386;2022-10-30T09:35:26;18.05;;;6.53;;
39676;SDS011;27789;50.840;4.386;2022-10-30T09:37:52;20.85;;;7.15;;
39676;SDS011;27789;50.840;4.386;2022-10-30T09:40:21;17.50;;;6.90;;
39676;SDS011;27789;50.840;4.386;2022-10-30T09:42:53;18.30;;;7.05;;
39676;SDS011;27789;50.840;4.386;2022-10-30T09:48:27;20.35;;;8.05;;
39676;SDS011;27789;50.840;4.386;2022-10-30T09:51:04;20.48;;;6.90;;
39676;SDS011;27789;50.840;4.386;2022-10-30T10:01:30;15.35;;;6.75;;
39676;SDS011;27789;50.840;4.386;2022-10-30T10:06:32;17.20;;;6.30;;
39676;SDS011;27789;50.840;4.386;2022-10-30T10:09:01;18.48;;;7.35;;
39676;SDS011;27789;50.840;4.386;2022-10-30T10:11:37;19.35;;;6.68;;
39676;SDS011;27789;50.840;4.386;2022-10-30T10:16:47;16.85;;;7.60;;
39676;SDS011;27789;50.840;4.386;2022-10-30T10:22:02;19.52;;;8.15;;
39676;SDS011;27789;50.840;4.386;2022-10-30T10:24:38;21.90;;;8.20;;
39676;SDS011;27789;50.840;4.386;2022-10-30T10:46:28;20.10;;;8.77;;
39676;SDS011;27789;50.840;4.386;2022-10-30T10:48:51;18.73;;;9.40;;
39676;SDS011;27789;50.840;4.386;2022-10-30T10:51:27;27.17;;;10.73;;
39676;SDS011;27789;50.840;4.386;2022-10-30T10:54:04;17.88;;;9.57;;
39676;SDS011;27789;50.840;4.386;2022-10-30T10:56:34;20.63;;;9.50;;
39676;SDS011;27789;50.840;4.386;2022-10-30T10:59:04;24.63;;;8.70;;
39676;SDS011;27789;50.840;4.386;2022-10-30T11:01:41;22.63;;;8.73;;
39676;SDS011;27789;50.840;4.386;2022-10-30T11:04:14;20.63;;;8.80;;
39676;SDS011;27789;50.840;4.386;2022-10-30T11:06:49;33.53;;;10.52;;
39676;SDS011;27789;50.840;4.386;2022-10-30T11:09:17;26.80;;;10.90;;
39676;SDS011;27789;50.840;4.386;2022-10-30T11:11:48;27.92;;;11.13;;
39676;SDS011;27789;50.840;4.386;2022-10-30T11:14:19;26.52;;;11.23;;
39676;SDS011;27789;50.840;4.386;2022-10-30T11:16:52;26.13;;;9.80;;
39676;SDS011;27789;50.840;4.386;2022-10-30T11:19:29;21.75;;;9.13;;
39676;SDS011;27789;50.840;4.386;2022-10-30T11:21:56;27.00;;;10.38;;
39676;SDS011;27789;50.840;4.386;2022-10-30T11:32:28;15.63;;;8.73;;
39676;SDS011;27789;50.840;4.386;2022-10-30T11:35:00;28.58;;;9.75;;
39676;SDS011;27789;50.840;4.386;2022-10-30T11:37:32;19.92;;;9.25;;
39676;SDS011;27789;50.840;4.386;2022-10-30T11:40:00;22.83;;;9.07;;
39676;SDS011;27789;50.840;4.386;2022-10-30T11:42:31;25.40;;;8.85;;
39676;SDS011;27789;50.840;4.386;2022-10-30T11:44:58;23.67;;;9.27;;
39676;SDS011;27789;50.840;4.386;2022-10-30T11:47:30;20.52;;;8.52;;
39676;SDS011;27789;50.840;4.386;2022-10-30T11:50:03;19.95;;;9.00;;
39676;SDS011;27789;50.840;4.386;2022-10-30T11:52:35;21.77;;;8.98;;
39676;SDS011;27789;50.840;4.386;2022-10-30T11:55:09;29.33;;;10.10;;
39676;SDS011;27789;50.840;4.386;2022-10-30T11:57:40;17.83;;;8.98;;
39676;SDS011;27789;50.840;4.386;2022-10-30T12:00:13;19.67;;;8.30;;
39676;SDS011;27789;50.840;4.386;2022-10-30T12:02:46;16.88;;;8.23;;
39676;SDS011;27789;50.840;4.386;2022-10-30T12:10:31;14.13;;;6.00;;
39676;SDS011;27789;50.840;4.386;2022-10-30T12:13:04;14.88;;;5.88;;
39676;SDS011;27789;50.840;4.386;2022-10-30T12:15:32;15.15;;;5.80;;
39676;SDS011;27789;50.840;4.386;2022-10-30T12:18:03;18.93;;;5.93;;
39676;SDS011;27789;50.840;4.386;2022-10-30T12:20:36;15.55;;;6.03;;
39676;SDS011;27789;50.840;4.386;2022-10-30T12:23:09;8.68;;;5.47;;
39676;SDS011;27789;50.840;4.386;2022-10-30T12:25:36;9.82;;;6.07;;
39676;SDS011;27789;50.840;4.386;2022-10-30T12:30:55;13.88;;;6.10;;
39676;SDS011;27789;50.840;4.386;2022-10-30T12:33:32;21.23;;;7.50;;
39676;SDS011;27789;50.840;4.386;2022-10-30T12:36:04;17.65;;;6.07;;
39676;SDS011;27789;50.840;4.386;2022-10-30T12:38:37;13.63;;;5.77;;
39676;SDS011;27789;50.840;4.386;2022-10-30T12:43:56;14.10;;;5.90;;
39676;SDS011;27789;50.840;4.386;2022-10-30T12:55:20;18.20;;;5.95;;
39676;SDS011;27789;50.840;4.386;2022-10-30T12:57:43;18.25;;;6.18;;
39676;SDS011;27789;50.840;4.386;2022-10-30T13:00:26;18.48;;;6.22;;
39676;SDS011;27789;50.840;4.386;2022-10-30T13:05:44;14.65;;;5.65;;
39676;SDS011;27789;50.840;4.386;2022-10-30T13:11:03;20.05;;;7.28;;
39676;SDS011;27789;50.840;4.386;2022-10-30T13:13:36;14.70;;;6.93;;
39676;SDS011;27789;50.840;4.386;2022-10-30T13:16:07;15.60;;;6.15;;
39676;SDS011;27789;50.840;4.386;2022-10-30T13:18:43;15.18;;;5.88;;
39676;SDS011;27789;50.840;4.386;2022-10-30T13:24:11;17.20;;;6.70;;
39676;SDS011;27789;50.840;4.386;2022-10-30T13:29:27;16.67;;;5.97;;
39676;SDS011;27789;50.840;4.386;2022-10-30T13:32:25;14.73;;;5.63;;
39676;SDS011;27789;50.840;4.386;2022-10-30T13:35:02;10.02;;;5.20;;
39676;SDS011;27789;50.840;4.386;2022-10-30T13:40:38;17.50;;;5.78;;
39676;SDS011;27789;50.840;4.386;2022-10-30T13:51:19;14.32;;;5.25;;
39676;SDS011;27789;50.840;4.386;2022-10-30T13:53:59;19.20;;;5.43;;
39676;SDS011;27789;50.840;4.386;2022-10-30T13:56:29;12.88;;;6.15;;
39676;SDS011;27789;50.840;4.386;2022-10-30T14:01:25;15.30;;;5.55;;
39676;SDS011;27789;50.840;4.386;2022-10-30T14:07:05;18.88;;;6.18;;
39676;SDS011;27789;50.840;4.386;2022-10-30T14:15:18;15.25;;;6.65;;
39676;SDS011;27789;50.840;4.386;2022-10-30T14:28:30;17.40;;;7.05;;
39676;SDS011;27789;50.840;4.386;2022-10-30T14:34:24;16.17;;;6.50;;
39676;SDS011;27789;50.840;4.386;2022-10-30T14:37:02;15.52;;;5.65;;
39676;SDS011;27789;50.840;4.386;2022-10-30T14:39:28;15.43;;;6.22;;
39676;SDS011;27789;50.840;4.386;2022-10-30T14:49:57;16.60;;;7.43;;
39676;SDS011;27789;50.840;4.386;2022-10-30T15:03:13;18.92;;;10.20;;
39676;SDS011;27789;50.840;4.386;2022-10-30T15:13:43;23.52;;;9.75;;
39676;SDS011;27789;50.840;4.386;2022-10-30T15:16:13;21.38;;;10.30;;
39676;SDS011;27789;50.840;4.386;2022-10-30T15:18:43;21.75;;;10.15;;
39676;SDS011;27789;50.840;4.386;2022-10-30T15:21:12;23.10;;;9.80;;
39676;SDS011;27789;50.840;4.386;2022-10-30T15:23:46;23.92;;;10.40;;
39676;SDS011;27789;50.840;4.386;2022-10-30T15:26:19;25.95;;;10.43;;
39676;SDS011;27789;50.840;4.386;2022-10-30T15:28:48;19.60;;;9.32;;
39676;SDS011;27789;50.840;4.386;2022-10-30T15:31:19;24.20;;;9.60;;
39676;SDS011;27789;50.840;4.386;2022-10-30T15:33:49;20.77;;;10.38;;
39676;SDS011;27789;50.840;4.386;2022-10-30T15:41:37;21.63;;;10.48;;
39676;SDS011;27789;50.840;4.386;2022-10-30T15:44:17;20.48;;;10.75;;
39676;SDS011;27789;50.840;4.386;2022-10-30T15:46:46;24.80;;;11.35;;
39676;SDS011;27789;50.840;4.386;2022-10-30T15:49:15;22.13;;;11.73;;
39676;SDS011;27789;50.840;4.386;2022-10-30T15:51:48;27.20;;;10.77;;
39676;SDS011;27789;50.840;4.386;2022-10-30T15:54:14;21.45;;;10.70;;
39676;SDS011;27789;50.840;4.386;2022-10-30T15:56:45;26.50;;;11.00;;
39676;SDS011;27789;50.840;4.386;2022-10-30T16:01:52;24.88;;;13.00;;
39676;SDS011;27789;50.840;4.386;2022-10-30T16:06:55;24.00;;;11.57;;
39676;SDS011;27789;50.840;4.386;2022-10-30T16:09:24;27.63;;;11.85;;
39676;SDS011;27789;50.840;4.386;2022-10-30T16:11:51;21.65;;;10.40;;
39676;SDS011;27789;50.840;4.386;2022-10-30T16:14:21;24.00;;;10.25;;
39676;SDS011;27789;50.840;4.386;2022-10-30T16:16:52;20.08;;;9.55;;
39676;SDS011;27789;50.840;4.386;2022-10-30T16:21:47;26.10;;;10.68;;
39676;SDS011;27789;50.840;4.386;2022-10-30T16:24:14;25.67;;;10.63;;
39676;SDS011;27789;50.840;4.386;2022-10-30T16:26:41;18.20;;;8.68;;
39676;SDS011;27789;50.840;4.386;2022-10-30T16:29:14;19.25;;;9.20;;
39676;SDS011;27789;50.840;4.386;2022-10-30T16:31:47;15.88;;;9.07;;
39676;SDS011;27789;50.840;4.386;2022-10-30T16:34:35;21.00;;;9.30;;
39676;SDS011;27789;50.840;4.386;2022-10-30T16:37:02;19.33;;;9.00;;
39676;SDS011;27789;50.840;4.386;2022-10-30T16:39:30;17.83;;;9.30;;
39676;SDS011;27789;50.840;4.386;2022-10-30T16:41:59;23.98;;;9.10;;
39676;SDS011;27789;50.840;4.386;2022-10-30T16:44:26;20.05;;;9.38;;
39676;SDS011;27789;50.840;4.386;2022-10-30T16:46:58;16.02;;;8.23;;
39676;SDS011;27789;50.840;4.386;2022-10-30T16:49:28;21.98;;;9.68;;
39676;SDS011;27789;50.840;4.386;2022-10-30T16:51:57;14.68;;;8.68;;
39676;SDS011;27789;50.840;4.386;2022-10-30T16:54:28;16.70;;;8.73;;
39676;SDS011;27789;50.840;4.386;2022-10-30T16:56:57;15.68;;;8.25;;
39676;SDS011;27789;50.840;4.386;2022-10-30T16:59:26;21.80;;;8.63;;
39676;SDS011;27789;50.840;4.386;2022-10-30T17:01:58;14.80;;;8.30;;
39676;SDS011;27789;50.840;4.386;2022-10-30T17:04:30;18.92;;;8.70;;
39676;SDS011;27789;50.840;4.386;2022-10-30T17:07:06;17.38;;;8.25;;
39676;SDS011;27789;50.840;4.386;2022-10-30T17:09:40;17.80;;;8.45;;
39676;SDS011;27789;50.840;4.386;2022-10-30T17:12:09;14.68;;;8.68;;
39676;SDS011;27789;50.840;4.386;2022-10-30T17:14:50;21.55;;;8.88;;
39676;SDS011;27789;50.840;4.386;2022-10-30T17:17:30;14.93;;;8.13;;
39676;SDS011;27789;50.840;4.386;2022-10-30T17:20:00;16.27;;;8.00;;
39676;SDS011;27789;50.840;4.386;2022-10-30T17:22:30;20.27;;;9.45;;
39676;SDS011;27789;50.840;4.386;2022-10-30T17:24:56;17.13;;;9.10;;
39676;SDS011;27789;50.840;4.386;2022-10-30T17:29:51;18.35;;;8.02;;
39676;SDS011;27789;50.840;4.386;2022-10-30T17:32:19;16.70;;;8.50;;
39676;SDS011;27789;50.840;4.386;2022-10-30T17:35:13;17.90;;;9.38;;
39676;SDS011;27789;50.840;4.386;2022-10-30T17:37:40;22.77;;;9.32;;
39676;SDS011;27789;50.840;4.386;2022-10-30T17:40:06;18.42;;;8.95;;
39676;SDS011;27789;50.840;4.386;2022-10-30T17:42:32;15.70;;;8.23;;
39676;SDS011;27789;50.840;4.386;2022-10-30T17:44:58;15.95;;;8.48;;
39676;SDS011;27789;50.840;4.386;2022-10-30T17:47:23;16.15;;;9.18;;
39676;SDS011;27789;50.840;4.386;2022-10-30T17:49:49;14.13;;;8.25;;
39676;SDS011;27789;50.840;4.386;2022-10-30T17:52:15;22.27;;;9.57;;